createdAt,value
2022-11-17T00:06:43.952Z,100150.72
2022-11-17T00:14:04.233Z,100150.00
2022-11-17T00:21:22.000Z,100154.06
2022-11-17T00:28:23.552Z,100135.19
2022-11-17T00:35:25.099Z,100126.44
2022-11-17T00:42:26.676Z,100129.88
2022-11-17T00:49:28.305Z,100122.50
2022-11-17T00:56:29.912Z,100100.97
2022-11-17T01:03:31.469Z,100116.13
2022-11-17T01:10:34.965Z,100117.13
2022-11-17T01:17:36.565Z,100120.66
2022-11-17T01:24:38.134Z,100114.34
2022-11-17T01:31:43.232Z,100109.63
2022-11-17T01:38:44.914Z,100109.41
2022-11-17T01:45:46.456Z,100094.28
2022-11-17T01:52:49.159Z,100085.75
2022-11-17T01:59:59.349Z,100095.31
2022-11-17T02:07:03.537Z,100088.78
2022-11-17T02:14:05.387Z,100099.53
2022-11-17T02:21:34.277Z,100088.59
2022-11-17T02:28:37.170Z,100092.63
2022-11-17T02:35:47.742Z,100075.97
2022-11-17T02:43:52.752Z,100069.75
2022-11-17T02:50:54.854Z,100068.31
2022-11-17T02:57:56.470Z,100054.31
2022-11-17T03:05:14.805Z,100041.16
2022-11-17T03:12:21.680Z,100037.63
2022-11-17T03:19:32.739Z,100047.22
2022-11-17T03:26:37.506Z,100049.13
2022-11-17T03:33:39.255Z,100034.16
2022-11-17T03:40:41.369Z,100043.72
2022-11-17T03:47:42.962Z,100046.16
2022-11-17T03:54:44.565Z,100044.19
2022-11-17T04:01:46.195Z,100033.69
2022-11-17T04:08:47.862Z,100026.38
2022-11-17T04:15:59.071Z,100036.03
2022-11-17T04:23:06.973Z,100029.34
2022-11-17T04:30:09.251Z,100019.16
2022-11-17T04:37:17.324Z,100010.09
2022-11-17T04:44:19.062Z,100008.06
2022-11-17T04:51:20.991Z,99998.91
2022-11-17T04:58:22.578Z,100001.19
2022-11-17T05:05:24.174Z,99992.75
2022-11-17T05:12:44.207Z,99996.44
2022-11-17T05:19:46.698Z,99980.41
2022-11-17T05:26:48.819Z,99990.50
2022-11-17T05:33:50.608Z,99973.69
2022-11-17T05:40:52.162Z,99975.28
2022-11-17T05:47:53.707Z,99968.84
2022-11-17T05:54:57.417Z,99954.03
2022-11-17T06:02:07.387Z,99959.38
2022-11-17T06:09:08.935Z,99964.50
2022-11-17T06:16:10.956Z,99955.88
2022-11-17T06:23:12.556Z,99969.78
2022-11-17T06:30:14.181Z,99954.53
2022-11-17T06:37:15.752Z,99957.34
2022-11-17T06:44:17.317Z,99954.91
2022-11-17T06:51:18.993Z,99942.78
2022-11-17T06:58:20.590Z,99946.59
2022-11-17T07:05:22.121Z,99929.25
2022-11-17T07:12:23.687Z,99923.75
2022-11-17T07:19:25.273Z,99920.59
2022-11-17T07:26:26.837Z,99915.25
2022-11-17T07:33:28.434Z,99920.94
2022-11-17T07:40:30.067Z,99926.56
2022-11-17T07:47:31.641Z,99932.41
2022-11-17T07:54:33.194Z,99929.94
2022-11-17T08:01:34.894Z,99927.59
2022-11-17T08:08:37.866Z,99940.94
2022-11-17T08:15:41.997Z,99924.38
2022-11-17T08:22:44.143Z,99924.38
2022-11-17T08:29:45.723Z,99922.88
2022-11-17T08:36:47.287Z,99917.16
2022-11-17T08:43:50.276Z,99905.69
2022-11-17T08:50:51.967Z,99895.56
2022-11-17T08:57:53.515Z,99907.19
2022-11-17T09:04:55.076Z,99901.47
2022-11-17T09:11:56.881Z,99898.63
2022-11-17T09:18:58.519Z,99911.81
2022-11-17T09:26:22.561Z,99916.97
2022-11-17T09:33:24.203Z,99911.50
2022-11-17T09:40:25.891Z,99904.66
2022-11-17T09:47:50.427Z,99898.47
2022-11-17T09:55:17.719Z,99894.69
2022-11-17T10:02:19.586Z,99891.13
2022-11-17T10:09:35.473Z,99910.22
2022-11-17T10:16:37.652Z,99909.19
2022-11-17T10:23:47.036Z,99894.44
2022-11-17T10:30:54.318Z,99887.13
2022-11-17T10:37:57.376Z,99886.00
2022-11-17T10:44:59.788Z,99877.75
2022-11-17T10:52:19.722Z,99865.13
2022-11-17T10:59:31.885Z,99855.38
2022-11-17T11:06:34.138Z,99850.91
2022-11-17T11:13:45.874Z,99842.38
2022-11-17T11:21:18.037Z,99821.59
2022-11-17T11:28:22.585Z,99824.53
2022-11-17T11:36:15.464Z,99824.38
2022-11-17T11:43:32.656Z,99809.13
2022-11-17T11:50:48.863Z,99808.97
2022-11-17T11:58:12.907Z,99800.06
2022-11-17T12:05:24.329Z,99798.44
2022-11-17T12:12:34.186Z,99795.41
2022-11-17T12:19:48.524Z,99793.00
2022-11-17T12:26:50.075Z,99800.41
2022-11-17T12:33:55.384Z,99806.91
2022-11-17T12:40:56.970Z,99800.19
2022-11-17T12:48:26.435Z,99799.56
2022-11-17T12:55:34.417Z,99789.16
2022-11-17T13:02:42.780Z,99791.97
2022-11-17T13:09:44.359Z,99788.28
2022-11-17T13:16:48.107Z,99786.38
2022-11-17T13:23:49.760Z,99783.75
2022-11-17T13:30:51.319Z,99794.47
2022-11-17T13:38:11.347Z,99783.34
2022-11-17T13:45:16.126Z,99774.81
2022-11-17T13:52:37.000Z,99776.53
2022-11-17T13:59:40.872Z,99768.09
2022-11-17T14:07:12.065Z,99782.38
2022-11-17T14:14:14.135Z,99774.63
2022-11-17T14:21:16.568Z,99773.00
2022-11-17T14:28:19.598Z,99768.56
2022-11-17T14:35:21.145Z,99770.31
2022-11-17T14:42:22.766Z,99775.47
2022-11-17T14:49:24.364Z,99771.66
2022-11-17T14:56:26.010Z,99767.47
2022-11-17T15:03:27.594Z,99770.81
2022-11-17T15:10:29.144Z,99764.78
2022-11-17T15:17:30.733Z,99760.53
2022-11-17T15:24:32.300Z,99760.63
2022-11-17T15:31:33.890Z,99767.69
2022-11-17T15:38:36.148Z,99752.16
2022-11-17T15:45:37.734Z,99769.13
2022-11-17T15:53:03.050Z,99770.06
2022-11-17T16:00:00.997Z,99770.00
2022-11-17T16:07:04.163Z,99770.16
2022-11-17T16:14:05.892Z,99760.34
2022-11-17T16:21:12.459Z,99767.44
2022-11-17T16:28:14.087Z,99776.22
2022-11-17T16:35:15.668Z,99751.66
2022-11-17T16:42:17.205Z,99749.31
2022-11-17T16:49:19.507Z,99750.50
2022-11-17T16:56:21.480Z,99748.22
2022-11-17T17:03:23.425Z,99755.06
2022-11-17T17:10:25.090Z,99762.44
2022-11-17T17:17:26.749Z,99756.78
2022-11-17T17:24:28.412Z,99768.72
2022-11-17T17:31:32.174Z,99763.59
2022-11-17T17:38:33.954Z,99774.94
2022-11-17T17:45:37.782Z,99769.34
2022-11-17T17:52:39.359Z,99774.69
2022-11-17T17:59:40.913Z,99774.50
2022-11-17T18:06:43.689Z,99786.22
2022-11-17T18:13:46.685Z,99776.78
2022-11-17T18:20:48.474Z,99775.56
2022-11-17T18:27:51.470Z,99767.75
2022-11-17T18:34:53.026Z,99783.16
2022-11-17T18:41:54.705Z,99784.34
2022-11-17T18:48:56.661Z,99778.06
2022-11-17T18:56:02.612Z,99796.09
2022-11-17T19:03:04.186Z,99783.63
2022-11-17T19:10:06.045Z,99788.88
2022-11-17T19:17:07.592Z,99796.66
2022-11-17T19:24:09.206Z,99791.34
2022-11-17T19:31:12.444Z,99798.22
2022-11-17T19:38:14.033Z,99790.84
2022-11-17T19:45:16.571Z,99798.97
2022-11-17T19:52:18.606Z,99799.84
2022-11-17T19:59:20.346Z,99807.59
2022-11-17T20:06:23.597Z,99802.56
2022-11-17T20:13:25.162Z,99808.34
2022-11-17T20:20:27.007Z,99812.66
2022-11-17T20:27:28.578Z,99815.25
2022-11-17T20:34:30.136Z,99818.56
2022-11-17T20:41:31.676Z,99815.53
2022-11-17T20:48:35.127Z,99823.25
2022-11-17T20:55:38.195Z,99825.16
2022-11-17T21:02:39.746Z,99823.81
2022-11-17T21:09:41.290Z,99819.72
2022-11-17T21:16:45.516Z,99814.69
2022-11-17T21:23:47.191Z,99820.13
2022-11-17T21:30:48.787Z,99829.50
2022-11-17T21:37:50.370Z,99830.31
2022-11-17T21:44:51.977Z,99832.41
2022-11-17T21:51:53.592Z,99828.88
2022-11-17T21:58:58.771Z,99831.53
2022-11-17T22:06:13.942Z,99834.22
2022-11-17T22:13:15.587Z,99846.19
2022-11-17T22:20:17.194Z,99857.91
2022-11-17T22:27:18.778Z,99859.91
2022-11-17T22:34:20.422Z,99865.41
2022-11-17T22:41:22.162Z,99868.84
2022-11-17T22:48:23.774Z,99872.13
2022-11-17T22:55:25.309Z,99877.44
2022-11-17T23:02:26.886Z,99884.78
2022-11-17T23:09:28.447Z,99880.34
2022-11-17T23:16:30.068Z,99876.06
2022-11-17T23:23:36.061Z,99883.34
2022-11-17T23:30:37.650Z,99888.13
2022-11-17T23:37:40.274Z,99886.78
2022-11-17T23:44:41.866Z,99875.34
2022-11-17T23:51:43.450Z,99890.19
2022-11-17T23:58:45.013Z,99892.47
